Time,TemperatureF,DewpointF,PressureIn,WindDirection,WindDirectionDegrees,WindSpeedMPH,WindSpeedGustMPH,Humidity,HourlyPrecipIn,Conditions,Clouds,dailyrainin,SoftwareType,DateUTC
2013-08-21 00:03:00,76.0,-99.9,-100.00,SSE,155,9.0,10.0,-999,0.00,,,0.00,,2013-08-21 05:03:00,
2013-08-21 00:43:00,74.0,-99.9,-100.00,SSE,156,9.0,10.0,-999,0.00,,,0.00,,2013-08-21 05:43:00,
2013-08-21 00:52:00,74.0,-99.9,-100.00,SSE,156,9.0,10.0,-999,0.00,,,0.00,,2013-08-21 05:52:00,
2013-08-21 01:02:00,74.0,-99.9,-100.00,SSE,156,9.0,10.0,-999,0.00,,,0.00,,2013-08-21 06:02:00,
2013-08-21 01:22:00,74.0,-99.9,-100.00,SSE,157,8.0,9.0,-999,0.00,,,0.00,,2013-08-21 06:22:00,
2013-08-21 01:42:00,74.0,-99.9,-100.00,SSE,155,7.0,9.0,-999,0.00,,,0.00,,2013-08-21 06:42:00,
2013-08-21 01:52:00,74.0,-99.9,-100.00,SSE,155,7.0,9.0,-999,0.00,,,0.00,,2013-08-21 06:52:00,
2013-08-21 02:02:00,74.0,-99.9,-100.00,SSE,155,7.0,9.0,-999,0.00,,,0.00,,2013-08-21 07:02:00,
2013-08-21 02:22:00,74.0,-99.9,-100.00,SSE,166,5.0,7.0,-999,0.00,,,0.00,,2013-08-21 07:22:00,
2013-08-21 02:32:00,74.0,-99.9,-100.00,SSE,166,5.0,7.0,-999,0.00,,,0.00,,2013-08-21 07:32:00,
2013-08-21 02:53:00,73.0,-99.9,-100.00,SSE,157,7.0,9.0,-999,0.00,,,0.00,,2013-08-21 07:53:00,
2013-08-21 03:10:00,72.0,-99.9,-100.00,SSE,156,6.0,7.0,-999,0.00,,,0.00,,2013-08-21 08:10:00,
2013-08-21 03:12:00,72.0,-99.9,-100.00,SSE,158,8.0,9.0,-999,0.00,,,0.00,,2013-08-21 08:12:00,
2013-08-21 03:22:00,72.0,-99.9,-100.00,SSE,158,8.0,9.0,-999,0.00,,,0.00,,2013-08-21 08:22:00,
2013-08-21 03:43:00,72.0,-99.9,-100.00,SSE,156,6.0,7.0,-999,0.00,,,0.00,,2013-08-21 08:43:00,
2013-08-21 03:53:00,72.0,-99.9,-100.00,SSE,156,6.0,7.0,-999,0.00,,,0.00,,2013-08-21 08:53:00,
2013-08-21 04:01:00,72.0,-99.9,-100.00,SSE,156,6.0,7.0,-999,0.00,,,0.00,,2013-08-21 09:01:00,
2013-08-21 04:10:00,72.0,-99.9,-100.00,SSE,165,4.0,6.0,-999,0.00,,,0.00,,2013-08-21 09:10:00,
2013-08-21 04:43:00,72.0,-99.9,-100.00,SSE,165,4.0,6.0,-999,0.00,,,0.00,,2013-08-21 09:43:00,
2013-08-21 04:54:00,72.0,-99.9,-100.00,SSE,165,4.0,6.0,-999,0.00,,,0.00,,2013-08-21 09:54:00,
2013-08-21 05:04:00,72.0,-99.9,-100.00,SSE,165,4.0,6.0,-999,0.00,,,0.00,,2013-08-21 10:04:00,
2013-08-21 05:43:00,71.0,-99.9,-100.00,South,187,2.0,4.0,-999,0.00,,,0.00,,2013-08-21 10:43:00,
2013-08-21 05:53:00,71.0,-99.9,-100.00,South,187,2.0,4.0,-999,0.00,,,0.00,,2013-08-21 10:53:00,
2013-08-21 06:03:00,71.0,-99.9,-100.00,South,187,2.0,4.0,-999,0.00,,,0.00,,2013-08-21 11:03:00,
2013-08-21 06:22:00,71.0,-99.9,-100.00,SSE,154,6.0,7.0,-999,0.00,,,0.00,,2013-08-21 11:22:00,
2013-08-21 06:42:00,71.0,-99.9,-100.00,SSE,153,5.0,7.0,-999,0.00,,,0.00,,2013-08-21 11:42:00,
2013-08-21 06:53:00,71.0,-99.9,-100.00,SSE,153,5.0,7.0,-999,0.00,,,0.00,,2013-08-21 11:53:00,
2013-08-21 07:12:00,71.0,-99.9,-100.00,South,177,3.0,5.0,-999,0.00,,,0.00,,2013-08-21 12:12:00,
2013-08-21 07:22:00,71.0,-99.9,-100.00,South,177,3.0,5.0,-999,0.00,,,0.00,,2013-08-21 12:22:00,
2013-08-21 07:42:00,71.0,-99.9,-100.00,SSE,161,6.0,8.0,-999,0.00,,,0.00,,2013-08-21 12:42:00,
2013-08-21 07:52:00,71.0,-99.9,-100.00,SSE,161,6.0,8.0,-999,0.00,,,0.00,,2013-08-21 12:52:00,
2013-08-21 08:02:00,71.0,-99.9,-100.00,SSE,161,6.0,8.0,-999,0.00,,,0.00,,2013-08-21 13:02:00,
2013-08-21 08:22:00,72.0,-99.9,-100.00,SE,145,2.0,4.0,-999,0.00,,,0.00,,2013-08-21 13:22:00,
2013-08-21 08:42:00,73.0,-99.9,-100.00,SSE,162,6.0,9.0,-999,0.00,,,0.00,,2013-08-21 13:42:00,
2013-08-21 08:52:00,73.0,-99.9,-100.00,SSE,162,6.0,9.0,-999,0.00,,,0.00,,2013-08-21 13:52:00,
2013-08-21 09:12:00,75.0,-99.9,-100.00,SSE,156,5.0,7.0,-999,0.00,,,0.00,,2013-08-21 14:12:00,
2013-08-21 09:22:00,75.0,-99.9,-100.00,SSE,156,5.0,7.0,-999,0.00,,,0.00,,2013-08-21 14:22:00,
2013-08-21 09:32:00,75.0,-99.9,-100.00,SSE,156,5.0,7.0,-999,0.00,,,0.00,,2013-08-21 14:32:00,
2013-08-21 09:52:00,79.0,-99.9,-100.00,SSW,193,4.0,7.0,-999,0.00,,,0.00,,2013-08-21 14:52:00,
2013-08-21 10:40:00,82.0,-99.9,-100.00,SSW,194,3.0,6.0,-999,0.00,,,0.00,,2013-08-21 15:40:00,
2013-08-21 10:43:00,81.0,-99.9,-100.00,SW,221,7.0,10.0,-999,0.00,,,0.00,,2013-08-21 15:43:00,
2013-08-21 10:55:00,81.0,-99.9,-100.00,SW,221,7.0,10.0,-999,0.00,,,0.00,,2013-08-21 15:55:00,
2013-08-21 11:04:00,81.0,-99.9,-100.00,SW,221,7.0,10.0,-999,0.00,,,0.00,,2013-08-21 16:04:00,
2013-08-21 11:24:00,82.0,-99.9,-100.00,SSW,194,3.0,6.0,-999,0.00,,,0.00,,2013-08-21 16:24:00,
2013-08-21 11:34:00,82.0,-99.9,-100.00,SSW,194,3.0,6.0,-999,0.00,,,0.00,,2013-08-21 16:34:00,
2013-08-21 12:13:00,85.0,-99.9,-100.00,SW,214,6.0,12.0,-999,0.00,,,0.00,,2013-08-21 17:13:00,
2013-08-21 12:23:00,85.0,-99.9,-100.00,SW,214,6.0,12.0,-999,0.00,,,0.00,,2013-08-21 17:23:00,
2013-08-21 12:34:00,85.0,-99.9,-100.00,SW,214,6.0,12.0,-999,0.00,,,0.00,,2013-08-21 17:34:00,
2013-08-21 12:53:00,86.0,-99.9,-100.00,SW,228,5.0,11.0,-999,0.00,,,0.00,,2013-08-21 17:53:00,
2013-08-21 13:12:00,86.0,-99.9,-100.00,SSW,206,6.0,10.0,-999,0.00,,,0.00,,2013-08-21 18:12:00,
2013-08-21 13:22:00,86.0,-99.9,-100.00,SSW,206,6.0,10.0,-999,0.00,,,0.00,,2013-08-21 18:22:00,
2013-08-21 13:40:00,88.0,-99.9,-100.00,SSW,206,4.0,12.0,-999,0.00,,,0.00,,2013-08-21 18:40:00,
2013-08-21 13:42:00,88.0,-99.9,-100.00,SW,215,6.0,10.0,-999,0.00,,,0.00,,2013-08-21 18:42:00,
2013-08-21 13:52:00,88.0,-99.9,-100.00,SW,215,6.0,10.0,-999,0.00,,,0.00,,2013-08-21 18:52:00,
2013-08-21 14:02:00,88.0,-99.9,-100.00,SW,215,6.0,10.0,-999,0.00,,,0.00,,2013-08-21 19:02:00,
2013-08-21 14:22:00,88.0,-99.9,-100.00,SSW,206,4.0,12.0,-999,0.00,,,0.00,,2013-08-21 19:22:00,
2013-08-21 14:32:00,88.0,-99.9,-100.00,SSW,206,4.0,12.0,-999,0.00,,,0.00,,2013-08-21 19:32:00,
2013-08-21 15:10:00,89.0,-99.9,-100.00,SW,222,8.0,12.0,-999,0.00,,,0.00,,2013-08-21 20:10:00,
2013-08-21 15:22:00,88.0,-99.9,-100.00,South,173,4.0,9.0,-999,0.00,,,0.00,,2013-08-21 20:22:00,
2013-08-21 15:43:00,89.0,-99.9,-100.00,SW,222,8.0,12.0,-999,0.00,,,0.00,,2013-08-21 20:43:00,
2013-08-21 15:52:00,89.0,-99.9,-100.00,SW,222,8.0,12.0,-999,0.00,,,0.00,,2013-08-21 20:52:00,
2013-08-21 16:02:00,89.0,-99.9,-100.00,SW,222,8.0,12.0,-999,0.00,,,0.00,,2013-08-21 21:02:00,
2013-08-21 17:24:00,90.0,-99.9,-100.00,SSW,205,5.0,8.0,-999,-99.99,,,0.00,,2013-08-21 22:24:00,
2013-08-21 17:40:00,89.0,-99.9,-100.00,SSW,204,3.0,6.0,-999,0.00,,,0.00,,2013-08-21 22:40:00,
2013-08-21 17:44:00,89.0,-99.9,-100.00,South,177,5.0,6.0,-999,0.00,,,0.00,,2013-08-21 22:44:00,
2013-08-21 17:53:00,89.0,-99.9,-100.00,South,177,5.0,6.0,-999,0.00,,,0.00,,2013-08-21 22:53:00,
2013-08-21 18:13:00,89.0,-99.9,-100.00,SSW,204,3.0,6.0,-999,0.00,,,0.00,,2013-08-21 23:13:00,
2013-08-21 18:22:00,89.0,-99.9,-100.00,SSW,204,3.0,6.0,-999,0.00,,,0.00,,2013-08-21 23:22:00,
2013-08-21 18:34:00,89.0,-99.9,-100.00,SSW,204,3.0,6.0,-999,0.00,,,0.00,,2013-08-21 23:34:00,
2013-08-21 19:12:00,87.0,-99.9,-100.00,SSW,193,3.0,5.0,-999,0.00,,,-99.99,,2013-08-22 00:12:00,
2013-08-21 19:22:00,87.0,-99.9,-100.00,SSW,193,3.0,5.0,-999,0.00,,,-99.99,,2013-08-22 00:22:00,
2013-08-21 19:32:00,87.0,-99.9,-100.00,SSW,193,3.0,5.0,-999,0.00,,,-99.99,,2013-08-22 00:32:00,
2013-08-21 19:52:00,85.0,-99.9,-100.00,South,186,2.0,4.0,-999,0.00,,,0.00,,2013-08-22 00:52:00,
2013-08-21 20:12:00,84.0,-99.9,-100.00,South,191,2.0,4.0,-999,0.00,,,0.00,,2013-08-22 01:12:00,
2013-08-21 20:22:00,84.0,-99.9,-100.00,South,191,2.0,4.0,-999,0.00,,,0.00,,2013-08-22 01:22:00,
2013-08-21 20:42:00,83.0,-99.9,-100.00,South,174,6.0,9.0,-999,0.00,,,0.00,,2013-08-22 01:42:00,
2013-08-21 20:52:00,83.0,-99.9,-100.00,South,174,6.0,9.0,-999,0.00,,,0.00,,2013-08-22 01:52:00,
2013-08-21 21:13:00,83.0,-99.9,-100.00,South,186,4.0,8.0,-999,0.00,,,0.00,,2013-08-22 02:13:00,
2013-08-21 21:22:00,83.0,-99.9,-100.00,South,186,4.0,8.0,-999,0.00,,,0.00,,2013-08-22 02:22:00,
2013-08-21 21:40:00,80.0,-99.9,-100.00,SSE,158,5.0,6.0,-999,0.00,,,0.00,,2013-08-22 02:40:00,
2013-08-21 21:53:00,82.0,-99.9,-100.00,South,176,4.0,6.0,-999,0.00,,,0.00,,2013-08-22 02:53:00,
2013-08-21 22:02:00,82.0,-99.9,-100.00,South,176,4.0,6.0,-999,0.00,,,0.00,,2013-08-22 03:02:00,
2013-08-21 22:23:00,80.0,-99.9,-100.00,SSE,158,5.0,6.0,-999,0.00,,,0.00,,2013-08-22 03:23:00,
2013-08-21 22:35:00,80.0,-99.9,-100.00,SSE,158,5.0,6.0,-999,0.00,,,0.00,,2013-08-22 03:35:00,
2013-08-21 23:10:00,78.0,-99.9,-100.00,SSE,164,5.0,6.0,-999,0.00,,,0.00,,2013-08-22 04:10:00,
2013-08-21 23:24:00,78.0,-99.9,-100.00,SSE,162,9.0,10.0,-999,0.00,,,0.00,,2013-08-22 04:24:00,
2013-08-21 23:34:00,78.0,-99.9,-100.00,SSE,162,9.0,10.0,-999,0.00,,,0.00,,2013-08-22 04:34:00,
2013-08-21 23:54:00,78.0,-99.9,-100.00,SSE,164,5.0,6.0,-999,0.00,,,0.00,,2013-08-22 04:54:00,